Independence, Minnesota
Current Conditions -  °F | °C
As of 7:55 AM on Saturday 25 Oct 2014 (Local Time) from KCFE Reporting Station
Clear Clear  
Wind Chill: 45°   Ceiling: Unl
Heat Index: 49°   Visibility: 10mi
Dew Point: 34°   Wind: 8mph
Humidity: 57%   Direction: 280°W
Pressure: 30.03"   Gusts: NA
Location:  45.1045°N, 93.6647°W
Report Text: KCFE 251255Z AUTO 28007KT 10SM CLR 09/01 A3003 RMK AO2 T00930011
Loading
Personal Weather Stations






























Interactive Weather Map
Tropical Storm Tracking
New forecast layout! Learn more

10-Day Weather Forecast

Advertisements
Track Severe Weather on mobile